Friedrich Kuhn

Olheiro - SC Freiburg
4 Abr 2027
Domingo
Processo

Personalidade

Adaptabilidade (7) Ambição (10) Controvérsia (10) Lealdade (16) Pressão (8) Profissionalismo (13) Espírito Esportivo (17) Temperamento (8)

Perfil

Estilo de Treinamento Democrático
Licença Continental A
Determinação 11
Gestão de Pessoas 11
Motivação 14
Disciplina 12
Satisfação no Trabalho
62%
Fadiga
0%
Função Olheiro
Salário 75.4K p/s
Contrato 14.03.2028

Desempenho

Comportamento Bom
Eficácia do Treinamento
32%
Desenvolvimento do Jogador
40%
Prevenção de Lesões
30%
Implementação Tática
55%

Eventos Recentes

Participou de uma reunião de recrutamento 7d atrás
Participou de uma reunião de recrutamento 7d atrás
Participou de uma reunião de recrutamento 14d atrás
Participou de uma reunião de recrutamento 14d atrás
Participou de uma reunião de recrutamento 21d atrás
Participou de uma reunião de recrutamento 21d atrás
Aniversário 21d atrás
Participou de uma reunião de recrutamento 28d atrás

Monitorando agora

135
Jogador Clube Status Habilidade Confiança Observado Última observação Último voto
Mika Mármol Feyenoord Ativo 133 / 131 40% 1 13.01.2027 -
Gabriel Sara Galatasaray Ativo 139 / 136 40% 1 13.01.2027 -
Ngal'Ayel Mukau LOSC Lille Ativo 142 / 148 40% 1 13.01.2027 -
Josh Coburn Millwall Ativo 118 / 111 40% 4 31.12.2026 -
Sorriso Famalicao Ativo 132 / 118 40% 5 31.12.2026 -
Brayan Gil Baltika Ativo 126 / 137 40% 1 31.12.2026 -
Marco Pineda VfB Stuttgart Ativo 144 / 151 40% 4 30.12.2026 -
Mateo Cassierra Atlético Mineiro Ativo 132 / 141 40% 3 30.12.2026 -
Mehdi Ghayedi Al Nasr Ativo 125 / 111 40% 3 30.12.2026 -
Radek Vítek Middlesbrough Ativo 140 / 138 40% 4 29.12.2026 -
Igor Nikić Mirandés Ativo 123 / 127 40% 2 29.12.2026 -
Iñaki Peña Panathinaikos Ativo 150 / 158 40% 1 29.12.2026 -
Leandro Trossard Besiktas Ativo 156 / 165 40% 6 27.12.2026 -
Nicolò Tresoldi Club Brugge Ativo 135 / 145 40% 6 27.12.2026 -
Fashion Sakala Al-Fayha Ativo 129 / 107 40% 3 27.12.2026 -
Jakub Stolarczyk Leicester City Ativo 139 / 126 40% 3 26.12.2026 -
Memphis Depay Corinthians Ativo 155 / 163 40% 5 26.12.2026 -
Pascal Loretz Luzern Ativo 125 / 128 40% 3 26.12.2026 -
George Wickens Lincoln City Ativo 110 / 127 40% 2 26.12.2026 -
Florián Monzón Atlas Ativo 118 / 115 40% 3 25.12.2026 -
Josias Lukembila Sion Ativo 116 / 129 40% 4 25.12.2026 -
Will Lankshear Middlesbrough Ativo 124 / 119 40% 1 25.12.2026 -
Michy Fellaini KV Oostende Ativo 135 / 133 40% 4 23.12.2026 -
Moussa Dembélé Al-Ettifaq Ativo 125 / 149 40% 2 23.12.2026 -
Cesar Corona Veracruz Ativo 141 / 136 40% 9 22.12.2026 -
Nicolás Ibáñez Cruz Azul Ativo 140 / 123 40% 5 22.12.2026 -
Mathias Pereira Lage St. Pauli Ativo 138 / 124 40% 2 22.12.2026 -
Carlos Vinícius Grêmio Ativo 142 / 154 40% 3 21.12.2026 -
Achraf Bencharki Al Ahly Ativo 131 / 121 40% 4 21.12.2026 -
Juan Carlos Arana Racing Santander Ativo 126 / 135 40% 3 20.12.2026 -
Gonzalo Plata Dinamo Moscow Ativo 129 / 136 40% 2 20.12.2026 -
Soufiane Rahimi Al Ain Ativo 130 / 144 40% 1 18.12.2026 -
José Arnáiz Granada Ativo 133 / 132 40% 3 16.12.2026 -
Nicolás Fernández Belgrano Ativo 134 / 106 40% 1 16.12.2026 -
Luciano Gondou CSKA Moscow Ativo 139 / 145 40% 1 15.12.2026 -
Alexis Vega Toluca Ativo 154 / 136 40% 7 12.12.2026 -
Munir Albacete Ativo 125 / 122 40% 4 12.12.2026 -
Adriano Bertaccini Anderlecht Ativo 130 / 113 40% 1 11.12.2026 -
Martijn Kaars St. Pauli Ativo 124 / 110 40% 1 11.12.2026 -
Chupete Málaga Ativo 122 / 142 40% 1 11.12.2026 -
Mads Hedenstad AGF Ativo 120 / 130 40% 1 11.12.2026 -
Carl Rushworth Coventry City Ativo 141 / 133 40% 2 09.12.2026 -
Elia Caprile Cagliari Ativo 139 / 155 40% 1 09.12.2026 -
Sem Westerveld Zaragoza Ativo 118 / 107 40% 1 09.12.2026 -
Pedro Flamengo Ativo 140 / 124 40% 2 08.12.2026 -
Rey Manaj Sivasspor Ativo 124 / 136 40% 1 08.12.2026 -
Hany Mukhtar Hamburger SV Ativo 133 / 126 40% 1 08.12.2026 -
Paulinho Palmeiras Ativo 151 / 156 40% 4 03.12.2026 -
Ferran Jutglà Celta Ativo 136 / 135 40% 1 03.12.2026 -
Jason Januzaj Mouscron Ativo 151 / 138 40% 4 01.12.2026 -
Maurits Kjærgaard Red Bull Salzburg Ativo 134 / 142 40% 6 30.11.2026 -
Duk Atlas Ativo 116 / 127 40% 1 30.11.2026 -
Chris Brady Chicago Fire Ativo 122 / 127 40% 2 29.11.2026 -
Justin Hammel Grasshopper Ativo 124 / 110 40% 3 29.11.2026 -
Gabriel Brazão Santos Ativo 129 / 119 40% 1 29.11.2026 -
Yorbe Vertessen Red Bull Salzburg Ativo 131 / 115 40% 5 27.11.2026 -
Musa Barrow Al-Khaleej Ativo 133 / 143 40% 4 23.11.2026 -
Andrin Hunziker St. Gallen Ativo 113 / 121 40% 4 22.11.2026 -
Sinan Karweina Luzern Ativo 113 / 105 40% 4 22.11.2026 -
Guilherme Fernandes Córdoba Ativo 135 / 125 40% 1 22.11.2026 -
Grégoire Coudert Burnley Ativo 127 / 128 40% 1 22.11.2026 -
Robin Risser RC Lens Ativo 139 / 148 40% 1 21.11.2026 -
Jean-Luc Morin Tours Perdido 138 / 146 40% 7 19.11.2026 Observar
Jorge Pascual Granada Ativo 130 / 144 40% 5 19.11.2026 Observar
Exequiel Zeballos Boca Juniors Ativo 138 / 140 40% 6 18.11.2026 -
James Trafford Leeds United Ativo 142 / 135 40% 1 18.11.2026 -
Christian Früchtl Red Bull Salzburg Ativo 112 / 112 40% 1 18.11.2026 -
Talisca Fenerbahce Perdido 149 / 130 40% 4 17.11.2026 -
Rilind Nivokazi Sion Ativo 113 / 108 40% 2 15.11.2026 -
Dejan Djokic Vaduz Ativo 96 / 109 40% 4 15.11.2026 -
Ousmane Camara Castellón Ativo 124 / 117 40% 1 15.11.2026 -
Alan Velasco Boca Juniors Ativo 130 / 119 40% 7 10.11.2026 -
Juan-José Perea Zurich Ativo 123 / 128 40% 1 09.11.2026 -
Matteo di Giusto Luzern Ativo 126 / 128 40% 2 08.11.2026 -
Urko Izeta Cádiz Ativo 129 / 132 40% 3 08.11.2026 -
Mousa Meunier KV Oostende Ativo 130 / 125 40% 1 08.11.2026 -
Luca Orellano Monterrey Ativo 137 / 127 40% 3 07.11.2026 -
Tom Cannon Sheffield United Ativo 128 / 137 40% 1 07.11.2026 -
Richard Koné Queens Park Rangers Ativo 118 / 115 40% 1 05.11.2026 -
Efraín Álvarez Guadalajara Ativo 133 / 130 40% 3 02.11.2026 -
Lukas Gütlbauer Wolfsberger AC Ativo 111 / 113 40% 1 01.11.2026 -
Bertrand Traoré Sunderland Ativo 136 / 137 40% 1 30.10.2026 -
José Manuel López Palmeiras Ativo 140 / 145 40% 1 24.10.2026 -
Robin Roefs Sunderland Ativo 139 / 153 40% 1 24.10.2026 -
Mauro Silveira Junior Ativo 125 / 126 40% 1 24.10.2026 -
Marvin Keller Young Boys Ativo 133 / 147 40% 1 24.10.2026 -
Anthony Patterson Wrexham Ativo 133 / 122 40% 2 23.10.2026 -
Jamie Cumming Oxford United Ativo 117 / 110 40% 2 23.10.2026 -
Jon Bautista Eibar Ativo 124 / 136 40% 2 21.10.2026 -
Kévin Denkey FC Cincinnati Ativo 128 / 110 40% 2 18.10.2026 -
Talles Magno New York City Ativo 122 / 117 40% 4 16.10.2026 -
Yuma Suzuki Kashima Antlers Ativo 136 / 134 40% 2 16.10.2026 -
Diego López Valencia Ativo 142 / 147 40% 1 15.10.2026 -
Leo Ceara Kashima Antlers Ativo 140 / 156 40% 2 10.10.2026 -
Dániel Gazdag Columbus Crew Ativo 125 / 147 40% 2 10.10.2026 -
Luis Vázquez Birmingham Ativo 134 / 121 40% 1 10.10.2026 -
Niklas Steffen Thun Ativo 123 / 110 40% 2 07.10.2026 -
Nicolás Sumavil Platense Ativo 118 / 117 40% 2 07.10.2026 -
Michael Cooper Sheffield United Ativo 123 / 128 40% 1 07.10.2026 -
Sam Surridge Nashville SC Ativo 139 / 135 40% 2 06.10.2026 -
Manfred Ugalde Spartak Moscow Ativo 137 / 136 40% 2 03.10.2026 -
Ángel Correa River Plate Ativo 134 / 158 40% 2 01.10.2026 -
Oli McBurnie Hull City Ativo 129 / 133 40% 4 30.09.2026 -
Kostantis Tzolakis Hull City Ativo 135 / 147 40% 1 28.09.2026 -
Diego Conde Villarreal Ativo 131 / 126 40% 1 28.09.2026 -
Anthony Racioppi Sion Ativo 119 / 111 40% 1 27.09.2026 -
Sebastián Villa Boca Juniors Ativo 120 / 144 40% 1 24.09.2026 -
Luiz Júnior Villarreal Ativo 142 / 149 40% 3 19.09.2026 -
Patrick Schulte Columbus Crew Ativo 128 / 138 40% 1 19.09.2026 -
Karl Hein Werder Bremen Ativo 128 / 147 40% 1 19.09.2026 -
Tim Kleindienst Borussia Mönchengladbach Ativo 149 / 151 40% 3 17.09.2026 -
Diber Cambindo Leon Ativo 120 / 146 40% 1 17.09.2026 -
Toni Martínez Alavés Ativo 133 / 127 40% 1 16.09.2026 -
Ignacio Russo Tigre Ativo 118 / 147 40% 1 15.09.2026 -
Agustín Venezia Iquique Ativo 110 / 105 40% 1 15.09.2026 -
Jefry Zapata Once Caldas Ativo 126 / 122 40% 1 15.09.2026 -
Arijanet Murić Sassuolo Ativo 137 / 129 40% 1 14.09.2026 -
Jonas Urbig Bayern Munich Ativo 134 / 125 40% 1 14.09.2026 -
Andrés Martín Racing Santander Ativo 130 / 130 40% 1 10.09.2026 -
Cristian Barros Cerro Ativo 102 / 116 40% 1 07.09.2026 -
Tomás Chancalay Minnesota United FC Ativo 124 / 137 40% 1 06.09.2026 -
Philippe Keny Zurich Ativo 116 / 107 40% 1 05.09.2026 -
Vitor Roque Palmeiras Ativo 132 / 161 40% 1 04.09.2026 -
Lucas Boyé Alavés Ativo 143 / 151 40% 1 03.09.2026 -
Gorka Guruzeta Athletic Bilbao Ativo 146 / 139 40% 1 03.09.2026 -
Diego Rossi Monterrey Ativo 126 / 132 40% 1 02.09.2026 -
Martin Terrier Bayer Leverkusen Ativo 137 / 127 40% 1 02.09.2026 -
Lucas Ocampos West Ham United Ativo 147 / 141 40% 1 31.08.2026 -
Uwe Franke Mouscron Ativo 125 / 135 40% 1 21.08.2026 -
Petar Musa FC Dallas Ativo 140 / 141 40% 1 21.08.2026 -
Christian Kofane Bayer Leverkusen Ativo 132 / 129 40% 1 21.08.2026 -
Nikolaus Wurmbrand Brighton Ativo 113 / 126 40% 1 19.08.2026 -
Jean-Mattéo Bahoya Eintracht Frankfurt Ativo 136 / 136 40% 1 19.08.2026 -
Leo Castledine Middlesbrough Ativo 125 / 140 40% 1 19.08.2026 -
Can Uzun Eintracht Frankfurt Ativo 134 / 132 40% 1 01.08.2026 -